Time;durP1;ratioP1;P1;durP2;ratioP2;P2;SDS_P1;SDS_P2;PMS_P1;PMS_P2;Temp;Humidity;BMP_temperature;BMP_pressure;BME280_temperature;BME280_humidity;BME280_pressure;Samples;Min_cycle;Max_cycle;Signal;HPM_P1;HPM_P2
2022/05/13 00:01:23;;;;;;;6.80;4.30;;;;;;;18.73;100.00;99421.53;4821920;29;20755;-77
2022/05/13 00:03:50;;;;;;;4.30;3.90;;;;;;;18.77;100.00;99432.66;4822477;29;20202;-78
2022/05/13 00:06:17;;;;;;;5.67;4.10;;;;;;;18.67;100.00;99424.53;4822290;29;20189;-77
2022/05/13 00:08:44;;;;;;;4.33;3.97;;;;;;;18.63;100.00;99424.28;4822496;29;20222;-75
2022/05/13 00:11:11;;;;;;;4.70;4.20;;;;;;;18.55;100.00;99432.19;4822247;29;20204;-79
2022/05/13 00:13:38;;;;;;;5.10;4.57;;;;;;;18.55;100.00;99424.06;4822889;29;20188;-78
2022/05/13 00:16:06;;;;;;;6.43;4.30;;;;;;;18.47;100.00;99417.28;4822344;29;20198;-77
2022/05/13 00:18:34;;;;;;;5.37;4.10;;;;;;;18.42;100.00;99415.41;4806131;29;20707;-77
2022/05/13 00:21:00;;;;;;;4.90;4.50;;;;;;;18.39;100.00;99420.53;4821879;29;20223;-78
2022/05/13 00:23:27;;;;;;;4.37;3.97;;;;;;;18.40;100.00;99422.16;4821803;29;20267;-80
2022/05/13 00:25:54;;;;;;;4.27;3.90;;;;;;;18.39;100.00;99428.69;4822393;29;20705;-77
2022/05/13 00:28:21;;;;;;;4.67;3.97;;;;;;;18.58;100.00;99431.63;4805989;29;20228;-78
2022/05/13 00:30:48;;;;;;;4.27;3.77;;;;;;;18.48;100.00;99432.44;4804719;29;20221;-77
2022/05/13 00:33:19;;;;;;;4.53;3.93;;;;;;;18.38;100.00;99424.34;4806049;29;20198;-77
2022/05/13 00:35:47;;;;;;;5.17;4.30;;;;;;;18.37;100.00;99430.88;4822471;29;20272;-77
2022/05/13 00:38:14;;;;;;;4.07;3.67;;;;;;;18.35;100.00;99433.03;4822146;29;20222;-79
2022/05/13 00:40:42;;;;;;;4.80;4.20;;;;;;;18.34;100.00;99437.63;4821239;29;20206;-77
2022/05/13 00:43:11;;;;;;;4.43;4.03;;;;;;;18.34;100.00;99443.06;4821977;29;20244;-77
2022/05/13 00:45:38;;;;;;;4.80;4.40;;;;;;;18.62;100.00;99470.69;4821763;29;20816;-77
2022/05/13 00:48:06;;;;;;;4.67;4.27;;;;;;;18.40;100.00;99523.34;4821959;29;20224;-77
2022/05/13 00:50:35;;;;;;;5.37;4.33;;;;;;;18.64;100.00;99558.06;4821434;29;20194;-77
2022/05/13 00:53:03;;;;;;;7.13;5.30;;;;;;;18.61;100.00;99537.75;4821754;29;20274;-74
2022/05/13 00:55:40;;;;;;;5.60;5.00;;;;;;;18.49;100.00;99545.31;4821423;29;20190;-76
2022/05/13 00:58:10;;;;;;;5.77;5.20;;;;;;;18.46;100.00;99548.56;4805747;29;20264;-77
2022/05/13 01:00:37;;;;;;;6.20;5.70;;;;;;;18.47;100.00;99548.31;4804843;29;20629;-77
2022/05/13 01:03:05;;;;;;;6.73;6.03;;;;;;;18.47;100.00;99561.88;4821253;29;20211;-77
2022/05/13 01:05:34;;;;;;;5.97;5.47;;;;;;;18.55;100.00;99559.72;4821465;29;20198;-77
2022/05/13 01:08:04;;;;;;;7.77;5.10;;;;;;;18.96;100.00;99582.16;4805844;29;20268;-77
2022/05/13 01:10:32;;;;;;;7.47;4.53;;;;;;;19.11;100.00;99606.56;4821431;29;20226;-78
2022/05/13 01:13:00;;;;;;;5.17;4.10;;;;;;;19.26;100.00;99636.41;4805350;29;20223;-79
2022/05/13 01:15:31;;;;;;;5.97;4.23;;;;;;;19.27;100.00;99668.69;4804618;29;20198;-74
2022/05/13 01:18:07;;;;;;;4.93;3.30;;;;;;;19.52;100.00;99672.47;4805609;29;20213;-77
2022/05/13 01:20:47;;;;;;;4.37;3.43;;;;;;;19.36;100.00;99683.34;4821039;29;20181;-78
2022/05/13 01:23:42;;;;;;;5.53;3.10;;;;;;;19.44;100.00;99676.56;4790611;29;20314;-77
2022/05/13 01:26:15;;;;;;;5.80;3.37;;;;;;;19.28;100.00;99677.66;4821339;29;20266;-77
2022/05/13 01:28:50;;;;;;;3.77;3.37;;;;;;;19.23;100.00;99702.13;4821440;29;20194;-77
2022/05/13 01:31:34;;;;;;;3.40;3.10;;;;;;;19.13;100.00;99694.78;4804858;29;20182;-78
2022/05/13 01:34:05;;;;;;;5.27;3.23;;;;;;;19.02;100.00;99685.06;4821803;29;20651;-74
2022/05/13 01:36:32;;;;;;;2.90;2.70;;;;;;;19.02;100.00;99674.19;4821066;29;20243;-74
2022/05/13 01:38:59;;;;;;;5.13;3.13;;;;;;;18.87;100.00;99685.88;4821541;29;20661;-74
2022/05/13 01:41:26;;;;;;;3.70;3.20;;;;;;;18.59;100.00;99689.13;4820549;29;20281;-75
2022/05/13 01:43:53;;;;;;;5.60;3.17;;;;;;;18.13;100.00;99668.41;4821416;29;20221;-78
2022/05/13 01:46:21;;;;;;;5.20;3.47;;;;;;;17.70;100.00;99673.16;4820989;29;20194;-77
2022/05/13 01:48:49;;;;;;;5.33;3.90;;;;;;;17.35;100.00;99665.66;4821000;29;20259;-77
2022/05/13 01:51:16;;;;;;;4.30;3.50;;;;;;;17.26;100.00;99661.81;4804348;29;20194;-77
2022/05/13 01:53:43;;;;;;;4.97;3.43;;;;;;;16.96;100.00;99654.31;4820818;29;20269;-77
2022/05/13 01:56:10;;;;;;;5.73;3.47;;;;;;;16.81;100.00;99667.72;4820924;29;20205;-77
2022/05/13 01:58:37;;;;;;;6.47;3.87;;;;;;;16.72;100.00;99669.28;4821148;29;20280;-77
2022/05/13 02:01:06;;;;;;;3.90;3.60;;;;;;;16.53;100.00;99681.53;4820533;29;20220;-77
2022/05/13 02:03:45;;;;;;;6.07;3.63;;;;;;;16.41;100.00;99680.88;4820577;29;20222;-77
2022/05/13 02:06:24;;;;;;;4.63;3.73;;;;;;;16.38;100.00;99686.81;4820857;29;20260;-77
2022/05/13 02:08:53;;;;;;;5.47;4.27;;;;;;;16.26;100.00;99676.16;4821022;29;20230;-77
2022/05/13 02:11:22;;;;;;;6.83;4.70;;;;;;;16.22;100.00;99673.13;4804116;29;20194;-77
2022/05/13 02:13:51;;;;;;;5.20;4.23;;;;;;;16.20;100.00;99675.28;4820821;29;20562;-76
2022/05/13 02:16:18;;;;;;;7.20;4.47;;;;;;;16.13;100.00;99665.75;4804152;29;20222;-74
2022/05/13 02:18:45;;;;;;;6.90;4.67;;;;;;;16.13;100.00;99653.06;4804312;29;20274;-77
2022/05/13 02:21:13;;;;;;;6.43;4.30;;;;;;;16.09;100.00;99637.59;4820598;29;20697;-78
2022/05/13 02:23:40;;;;;;;5.60;3.77;;;;;;;16.09;100.00;99637.59;4810139;29;20766;-77
2022/05/13 02:26:09;;;;;;;4.27;3.50;;;;;;;16.15;100.00;99634.66;4801955;29;20216;-77
2022/05/13 02:28:36;;;;;;;3.87;3.10;;;;;;;16.14;100.00;99633.03;4802072;29;21111;-77
2022/05/13 02:31:04;;;;;;;3.67;2.90;;;;;;;16.10;100.00;99615.69;4801811;29;20222;-77
2022/05/13 02:33:32;;;;;;;4.10;3.10;;;;;;;16.07;100.00;99602.72;4801985;29;20243;-78
2022/05/13 02:36:00;;;;;;;4.37;3.43;;;;;;;16.08;100.00;99606.22;4802478;29;20202;-78
2022/05/13 02:38:27;;;;;;;5.53;3.13;;;;;;;16.04;100.00;99602.41;4785987;29;20270;-75
2022/05/13 02:41:12;;;;;;;3.97;3.60;;;;;;;16.02;100.00;99594.56;4802113;29;20199;-78
2022/05/13 02:43:48;;;;;;;4.97;3.40;;;;;;;16.02;100.00;99585.63;4802284;29;20202;-78
2022/05/13 02:46:18;;;;;;;3.80;3.43;;;;;;;15.95;100.00;99577.75;4786187;29;20178;-78
2022/05/13 02:48:45;;;;;;;3.60;3.20;;;;;;;15.97;100.00;99588.28;4786106;29;20734;-78
2022/05/13 02:51:12;;;;;;;5.23;3.60;;;;;;;16.00;100.00;99579.69;4802382;29;20271;-77
2022/05/13 02:53:39;;;;;;;4.27;3.60;;;;;;;15.98;100.00;99581.81;4803581;29;20233;-77
2022/05/13 02:56:07;;;;;;;4.73;3.90;;;;;;;16.01;100.00;99592.09;4805544;29;20217;-77
2022/05/13 02:58:35;;;;;;;4.00;3.70;;;;;;;16.03;100.00;99579.97;4805452;29;20255;-74
2022/05/13 03:01:02;;;;;;;4.00;3.70;;;;;;;16.03;100.00;99571.88;4805453;29;20663;-75
2022/05/13 03:03:33;;;;;;;4.90;3.57;;;;;;;16.05;100.00;99568.91;4804901;29;20206;-78
2022/05/13 03:06:00;;;;;;;3.70;3.40;;;;;;;16.06;100.00;99562.41;4805423;29;20198;-75
2022/05/13 03:08:26;;;;;;;3.53;3.23;;;;;;;16.06;100.00;99576.75;4805427;29;20225;-75
2022/05/13 03:10:53;;;;;;;5.40;3.47;;;;;;;16.05;100.00;99579.72;4805242;29;20229;-75
2022/05/13 03:13:20;;;;;;;4.10;3.03;;;;;;;16.02;100.00;99583.75;4805491;29;20235;-78
2022/05/13 03:15:47;;;;;;;4.93;3.70;;;;;;;16.03;100.00;99596.19;4805656;29;20566;-75
2022/05/13 03:18:14;;;;;;;6.10;3.50;;;;;;;15.96;100.00;99581.28;4789199;29;20334;-74
2022/05/13 03:20:41;;;;;;;4.30;3.60;;;;;;;15.95;100.00;99585.03;4804663;29;20219;-75
2022/05/13 03:23:08;;;;;;;4.63;3.43;;;;;;;15.93;100.00;99582.56;4805544;29;20252;-76
2022/05/13 03:25:34;;;;;;;5.43;3.70;;;;;;;15.95;100.00;99585.84;4805232;29;20290;-75
2022/05/13 03:28:01;;;;;;;5.20;3.77;;;;;;;15.95;100.00;99591.25;4789604;29;20225;-78
2022/05/13 03:30:28;;;;;;;5.13;3.50;;;;;;;15.93;100.00;99587.16;4805075;29;20285;-79
2022/05/13 03:32:55;;;;;;;4.23;3.60;;;;;;;15.95;100.00;99587.72;4805508;29;20620;-78
2022/05/13 03:35:23;;;;;;;4.37;4.00;;;;;;;15.94;100.00;99583.41;4804716;29;20222;-78
2022/05/13 03:37:50;;;;;;;4.53;3.87;;;;;;;15.89;100.00;99586.88;4805554;29;20259;-77
2022/05/13 03:40:17;;;;;;;5.03;3.73;;;;;;;15.88;100.00;99582.53;4788080;29;20214;-80
2022/05/13 03:42:44;;;;;;;4.20;3.80;;;;;;;15.84;100.00;99593.03;4804955;29;20242;-75
2022/05/13 03:45:13;;;;;;;5.70;3.90;;;;;;;15.87;100.00;99599.78;4804967;29;20205;-79
2022/05/13 03:47:39;;;;;;;4.63;3.80;;;;;;;15.91;100.00;99600.13;4788750;29;20223;-77
2022/05/13 03:50:08;;;;;;;4.03;3.40;;;;;;;15.90;100.00;99601.19;4804825;29;20210;-78
2022/05/13 03:52:36;;;;;;;4.17;3.77;;;;;;;15.89;100.00;99600.38;4804516;29;20195;-78
2022/05/13 03:55:05;;;;;;;4.60;3.53;;;;;;;15.94;100.00;99602.31;4788516;29;20377;-77
2022/05/13 03:57:32;;;;;;;4.70;3.50;;;;;;;15.94;100.00;99600.44;4788462;29;20218;-78
2022/05/13 04:00:00;;;;;;;3.97;3.50;;;;;;;15.91;100.00;99600.13;4804634;29;20248;-77
2022/05/13 04:02:29;;;;;;;4.53;3.50;;;;;;;15.95;100.00;99599.38;4788203;29;20215;-79
2022/05/13 04:10:28;;;;;;;4.13;3.33;;;;;;;16.02;100.00;99597.25;4790411;29;20217;-78
2022/05/13 04:18:26;;;;;;;4.20;3.80;;;;;;;16.12;100.00;99588.44;4804127;29;20783;-77
2022/05/13 04:20:52;;;;;;;3.87;3.53;;;;;;;16.13;100.00;99582.78;4804515;29;20266;-78
2022/05/13 04:23:19;;;;;;;10.97;7.93;;;;;;;16.16;100.00;99568.75;4795492;29;20609;-78
2022/05/13 04:25:46;;;;;;;4.63;4.10;;;;;;;16.24;100.00;99583.66;4822044;29;20627;-78
2022/05/13 04:28:13;;;;;;;4.53;3.90;;;;;;;16.27;100.00;99578.56;4822529;29;20801;-77
2022/05/13 04:30:40;;;;;;;4.17;3.60;;;;;;;16.30;100.00;99588.03;4805557;29;20222;-78
2022/05/13 04:33:07;;;;;;;4.43;3.40;;;;;;;16.33;100.00;99589.44;4822459;29;20276;-78
2022/05/13 04:35:34;;;;;;;4.03;3.37;;;;;;;16.30;100.00;99582.63;4822095;29;20262;-78
2022/05/13 04:38:01;;;;;;;4.17;3.77;;;;;;;16.31;100.00;99595.09;4822413;29;20198;-78
2022/05/13 04:40:29;;;;;;;3.70;3.40;;;;;;;16.31;100.00;99597.78;4821646;29;20272;-77
2022/05/13 04:42:56;;;;;;;5.10;3.73;;;;;;;16.29;100.00;99602.63;4822294;29;20638;-78
2022/05/13 04:45:26;;;;;;;5.00;3.90;;;;;;;16.29;100.00;99606.16;4821704;29;20229;-77
2022/05/13 04:48:18;;;;;;;4.50;4.10;;;;;;;16.28;100.00;99615.31;4822433;29;20186;-76
2022/05/13 04:50:58;;;;;;;4.00;3.70;;;;;;;16.30;100.00;99625.91;4821299;29;20186;-77
2022/05/13 04:53:29;;;;;;;5.93;4.33;;;;;;;16.25;100.00;99625.84;4821794;29;20182;-77
2022/05/13 04:55:58;;;;;;;5.30;4.40;;;;;;;16.24;100.00;99629.63;4822040;29;20217;-77
2022/05/13 04:58:25;;;;;;;6.23;4.30;;;;;;;16.27;100.00;99629.13;4821765;29;20458;-78
2022/05/13 05:00:55;;;;;;;4.73;4.30;;;;;;;16.28;100.00;99639.66;4805255;29;20214;-77
2022/05/13 05:03:23;;;;;;;5.60;4.27;;;;;;;16.25;100.00;99634.78;4821341;29;20266;-78
2022/05/13 05:05:56;;;;;;;5.20;4.57;;;;;;;16.27;100.00;99635.34;4821790;29;20190;-77
2022/05/13 05:08:24;;;;;;;5.37;4.60;;;;;;;16.29;100.00;99635.88;4805336;29;20293;-77
2022/05/13 05:10:51;;;;;;;6.23;4.43;;;;;;;16.28;100.00;99641.56;4821431;29;20354;-80
2022/05/13 05:13:20;;;;;;;4.90;4.43;;;;;;;16.29;100.00;99637.78;4821732;29;20217;-78
2022/05/13 05:15:47;;;;;;;5.53;5.00;;;;;;;16.32;100.00;99641.88;4821280;29;20218;-77
2022/05/13 05:18:15;;;;;;;4.23;3.83;;;;;;;16.36;100.00;99638.41;4805337;29;20771;-78
2022/05/13 05:20:43;;;;;;;4.03;3.73;;;;;;;16.46;100.00;99638.50;4821008;29;20190;-78
2022/05/13 05:23:16;;;;;;;4.30;3.87;;;;;;;16.59;100.00;99637.25;4821881;29;20639;-78
2022/05/13 05:25:44;;;;;;;3.70;3.40;;;;;;;16.61;100.00;99637.84;4821579;29;20204;-77
2022/05/13 05:28:11;;;;;;;3.70;3.40;;;;;;;16.87;100.00;99634.22;4805015;29;20663;-78
2022/05/13 05:30:38;;;;;;;3.63;3.30;;;;;;;16.96;100.00;99643.50;4820838;29;20200;-78
2022/05/13 05:33:06;;;;;;;5.00;3.70;;;;;;;17.01;100.00;99637.28;4805275;29;20666;-78
2022/05/13 05:35:33;;;;;;;4.00;3.60;;;;;;;17.09;100.00;99636.78;4821543;29;20213;-78
2022/05/13 05:38:00;;;;;;;4.23;3.30;;;;;;;17.06;100.00;99645.44;4821483;29;20218;-77
2022/05/13 05:40:27;;;;;;;3.87;3.37;;;;;;;17.06;100.00;99642.75;4804783;29;20217;-78
2022/05/13 05:42:54;;;;;;;4.40;3.30;;;;;;;17.11;100.00;99638.19;4821231;29;20620;-78
2022/05/13 05:45:22;;;;;;;3.60;3.00;;;;;;;17.14;100.00;99639.53;4821160;29;20609;-77
2022/05/13 05:47:49;;;;;;;3.60;3.30;;;;;;;17.15;100.00;99642.00;4821278;29;20246;-78
2022/05/13 05:50:18;;;;;;;3.97;3.60;;;;;;;17.20;100.00;99651.22;4821118;29;20247;-78
2022/05/13 05:52:45;;;;;;;3.47;3.17;;;;;;;17.26;100.00;99645.56;4805142;29;20260;-78
2022/05/13 05:58:09;;;;;;;4.10;3.27;;;;;;;17.42;100.00;99649.97;4807369;29;20641;-77
2022/05/13 06:00:39;;;;;;;3.60;3.30;;;;;;;17.64;100.00;99666.06;4820684;29;20689;-78
2022/05/13 06:03:06;;;;;;;3.67;3.33;;;;;;;17.82;100.00;99667.53;4820367;29;20194;-79
2022/05/13 06:05:33;;;;;;;3.80;3.50;;;;;;;18.01;100.00;99660.50;4823288;29;20214;-79
2022/05/13 06:08:03;;;;;;;6.67;3.53;;;;;;;18.17;100.00;99658.66;4820765;29;20267;-79
2022/05/13 06:10:32;;;;;;;3.83;3.53;;;;;;;18.22;100.00;99666.81;4820631;29;20190;-79
2022/05/13 06:12:58;;;;;;;3.47;3.17;;;;;;;18.16;100.00;99665.16;4824569;29;20233;-78
2022/05/13 06:15:25;;;;;;;3.67;3.37;;;;;;;18.23;100.00;99671.97;4838890;29;20194;-79
2022/05/13 06:17:54;;;;;;;4.27;3.83;;;;;;;18.37;100.00;99672.25;4822889;29;20239;-79
2022/05/13 06:20:23;;;;;;;4.60;3.80;;;;;;;18.59;100.00;99683.69;4838632;29;20185;-79
2022/05/13 06:22:50;;;;;;;6.27;3.53;;;;;;;18.69;100.00;99675.56;4824986;29;20323;-78
2022/05/13 06:25:19;;;;;;;3.63;3.13;;;;;;;18.86;100.00;99670.66;4804543;29;20200;-80
2022/05/13 06:27:47;;;;;;;3.80;3.50;;;;;;;19.09;100.00;99679.31;4804115;29;20206;-79
2022/05/13 06:30:26;;;;;;;4.00;3.70;;;;;;;19.30;100.00;99672.78;4820573;29;20676;-79
2022/05/13 06:32:54;;;;;;;4.57;3.80;;;;;;;19.43;100.00;99676.81;4804283;29;20207;-79
2022/05/13 06:35:23;;;;;;;4.27;3.70;;;;;;;19.44;100.00;99678.47;4820234;29;20249;-78
2022/05/13 06:37:53;;;;;;;4.07;3.57;;;;;;;19.32;100.00;99668.69;4804324;29;20238;-79
2022/05/13 06:40:22;;;;;;;3.70;3.40;;;;;;;19.50;100.00;99671.94;4804270;29;20229;-79
2022/05/13 06:42:50;;;;;;;3.80;3.40;;;;;;;19.71;100.00;99668.06;4820202;29;20552;-79
2022/05/13 06:45:18;;;;;;;4.17;3.77;;;;;;;19.95;100.00;99673.66;4803933;29;20188;-79
2022/05/13 06:47:44;;;;;;;4.23;3.83;;;;;;;20.30;100.00;99670.75;4820451;29;20273;-79
2022/05/13 06:50:16;;;;;;;3.97;3.67;;;;;;;20.77;100.00;99670.13;4820538;29;20206;-80
2022/05/13 06:52:44;;;;;;;3.53;3.30;;;;;;;21.17;100.00;99682.59;4804551;29;20221;-80
2022/05/13 06:55:12;;;;;;;3.40;3.20;;;;;;;21.43;100.00;99673.03;4820731;29;20263;-80
2022/05/13 06:57:39;;;;;;;3.80;3.50;;;;;;;21.63;100.00;99671.19;4820557;29;20202;-80
2022/05/13 07:00:07;;;;;;;4.67;3.57;;;;;;;21.94;100.00;99667.00;4820395;29;20194;-80
2022/05/13 07:02:35;;;;;;;3.70;3.40;;;;;;;22.12;100.00;99665.38;4803382;29;20193;-80
2022/05/13 07:05:03;;;;;;;3.33;3.03;;;;;;;22.20;100.00;99668.28;4820856;29;20217;-79
2022/05/13 07:07:30;;;;;;;3.50;3.20;;;;;;;22.07;100.00;99670.94;4819533;29;20194;-78
2022/05/13 07:09:58;;;;;;;3.43;3.23;;;;;;;21.83;100.00;99676.41;4820278;29;20277;-79
2022/05/13 07:12:25;;;;;;;3.37;3.17;;;;;;;21.60;100.00;99679.94;4819713;29;20217;-78
2022/05/13 07:14:53;;;;;;;3.77;3.40;;;;;;;21.21;100.00;99694.53;4819897;29;20191;-80
2022/05/13 07:17:21;;;;;;;3.33;3.03;;;;;;;20.87;100.00;99694.53;4819646;29;20212;-78
2022/05/13 07:19:48;;;;;;;3.63;3.33;;;;;;;20.33;100.00;99693.88;4820074;29;20256;-78
2022/05/13 07:22:15;;;;;;;4.30;3.40;;;;;;;19.96;100.00;99689.69;4819773;29;20983;-79
2022/05/13 07:24:42;;;;;;;3.77;3.43;;;;;;;19.74;100.00;99700.91;4803519;29;20246;-79
2022/05/13 07:27:09;;;;;;;3.83;3.50;;;;;;;19.56;100.00;99711.56;4820090;29;20192;-79
2022/05/13 07:29:35;;;;;;;3.70;3.27;;;;;;;19.38;100.00;99709.41;4819775;29;20265;-78
2022/05/13 07:32:02;;;;;;;3.70;3.20;;;;;;;19.30;100.00;99700.75;4819691;29;20200;-78
2022/05/13 07:34:29;;;;;;;4.53;3.47;;;;;;;19.19;100.00;99712.72;4819575;29;20195;-79
2022/05/13 07:36:56;;;;;;;3.77;3.40;;;;;;;19.03;100.00;99710.31;4819700;29;20229;-79
2022/05/13 07:42:09;;;;;;;4.60;3.43;;;;;;;18.76;100.00;99718.69;4823296;29;20236;-78
2022/05/13 07:44:37;;;;;;;4.60;4.20;;;;;;;18.79;100.00;99727.13;4806916;29;20284;-78
2022/05/13 07:47:05;;;;;;;4.30;3.70;;;;;;;18.71;100.00;99722.22;4806600;29;20187;-78
2022/05/13 07:49:33;;;;;;;3.67;3.37;;;;;;;18.62;100.00;99733.88;4806443;29;20238;-78
2022/05/13 07:52:01;;;;;;;4.30;3.90;;;;;;;18.59;100.00;99723.56;4806144;29;20285;-78
2022/05/13 07:54:28;;;;;;;6.33;4.13;;;;;;;18.57;100.00;99718.41;4807059;29;20736;-78
2022/05/13 07:56:54;;;;;;;4.60;3.80;;;;;;;18.55;100.00;99715.19;4822380;29;20219;-78
2022/05/13 07:59:21;;;;;;;4.40;3.97;;;;;;;18.50;100.00;99709.72;4806275;29;20258;-80
2022/05/13 08:01:48;;;;;;;4.90;3.87;;;;;;;18.48;100.00;99717.28;4822387;29;20292;-78
2022/05/13 08:04:15;;;;;;;4.33;3.93;;;;;;;18.52;100.00;99726.53;4822710;29;20305;-78
2022/05/13 08:06:42;;;;;;;3.83;3.50;;;;;;;18.51;100.00;99722.19;4806338;29;20194;-79
2022/05/13 08:09:08;;;;;;;3.90;3.50;;;;;;;18.58;100.00;99713.81;4822570;29;20898;-79
2022/05/13 08:11:35;;;;;;;4.13;3.80;;;;;;;18.63;100.00;99720.06;4805951;29;20194;-78
2022/05/13 08:14:06;;;;;;;3.90;3.50;;;;;;;18.71;100.00;99719.50;4822907;29;20664;-79
2022/05/13 08:16:35;;;;;;;4.53;3.80;;;;;;;18.81;100.00;99719.53;4805949;29;20190;-79
2022/05/13 08:19:03;;;;;;;4.30;3.90;;;;;;;18.84;100.00;99718.19;4822363;29;20210;-79
2022/05/13 08:21:30;;;;;;;5.17;3.67;;;;;;;18.88;100.00;99714.66;4805756;29;20254;-78
2022/05/13 08:23:57;;;;;;;6.67;4.10;;;;;;;18.85;100.00;99717.06;4822390;29;20259;-78
2022/05/13 08:26:24;;;;;;;4.57;4.17;;;;;;;18.86;100.00;99716.00;4822181;29;20199;-79
2022/05/13 08:28:51;;;;;;;5.00;3.93;;;;;;;18.85;100.00;99711.66;4821894;29;20287;-80
2022/05/13 08:31:18;;;;;;;4.77;4.30;;;;;;;18.83;100.00;99702.97;4821736;29;20228;-79
2022/05/13 08:33:45;;;;;;;3.80;3.50;;;;;;;18.78;100.00;99692.94;4822272;29;20744;-79
2022/05/13 08:36:15;;;;;;;4.20;3.80;;;;;;;18.84;100.00;99702.72;4806060;29;20212;-79
2022/05/13 08:38:43;;;;;;;4.03;3.40;;;;;;;18.80;100.00;99701.59;4806174;29;20887;-79
2022/05/13 08:41:10;;;;;;;3.73;3.20;;;;;;;18.83;100.00;99703.78;4806198;29;20192;-78
2022/05/13 08:43:43;;;;;;;3.97;3.20;;;;;;;18.89;100.00;99705.44;4821925;29;20276;-78
2022/05/13 08:46:16;;;;;;;3.70;3.40;;;;;;;19.06;100.00;99698.88;4805973;29;20584;-79
2022/05/13 08:48:47;;;;;;;4.10;3.33;;;;;;;19.36;100.00;99701.56;4822218;29;20739;-78
2022/05/13 08:51:34;;;;;;;3.43;3.13;;;;;;;19.83;100.00;99694.94;4821174;29;20204;-80
2022/05/13 08:54:09;;;;;;;3.40;3.07;;;;;;;20.49;100.00;99696.19;4809652;29;20211;-78
2022/05/13 08:56:36;;;;;;;3.60;3.30;;;;;;;21.12;100.00;99689.97;4805293;29;20239;-78
2022/05/13 08:59:11;;;;;;;3.70;3.30;;;;;;;21.56;100.00;99692.53;4837643;29;20208;-79
2022/05/13 09:01:42;;;;;;;4.60;3.53;;;;;;;21.63;100.00;99696.53;4823121;29;20183;-78
2022/05/13 09:04:14;;;;;;;4.00;3.00;;;;;;;21.43;100.00;99691.31;4823336;29;20204;-79
2022/05/13 09:06:55;;;;;;;3.97;3.10;;;;;;;21.19;100.00;99690.47;4790481;29;20708;-79
2022/05/13 09:09:22;;;;;;;3.37;2.83;;;;;;;21.14;100.00;99693.25;4805671;29;20244;-80
2022/05/13 09:12:06;;;;;;;4.60;3.00;;;;;;;21.16;100.00;99699.22;4821545;29;20288;-79
2022/05/13 09:14:43;;;;;;;3.43;3.10;;;;;;;21.33;100.00;99694.13;4821389;29;20183;-79
2022/05/13 09:17:32;;;;;;;3.67;2.93;;;;;;;21.37;100.00;99697.94;4805213;29;20196;-78
2022/05/13 09:20:15;;;;;;;3.13;2.93;;;;;;;21.62;100.00;99694.91;4821423;29;20250;-78
2022/05/13 09:22:53;;;;;;;3.57;2.90;;;;;;;21.74;100.00;99697.25;4821411;29;20288;-78
2022/05/13 09:25:26;;;;;;;4.73;3.10;;;;;;;21.85;100.00;99699.53;4821713;29;20958;-79
2022/05/13 09:27:59;;;;;;;3.10;2.80;;;;;;;21.81;100.00;99687.59;4821353;29;20275;-78
2022/05/13 09:30:41;;;;;;;3.50;3.20;;;;;;;21.92;100.00;99691.81;4804829;29;20197;-78
2022/05/13 09:33:22;;;;;;;4.00;2.90;;;;;;;22.07;100.00;99685.34;4804825;29;20224;-78
2022/05/13 09:35:55;;;;;;;2.85;2.65;;;;;;;22.33;100.00;99694.84;4821540;29;20185;-78
2022/05/13 09:38:25;;;;;;;3.37;2.90;;;;;;;22.39;100.00;99680.00;4804763;29;20269;-78
2022/05/13 09:41:03;;;;;;;3.92;3.45;;;;;;;22.69;100.00;99684.16;4821058;29;20222;-79
2022/05/13 09:43:36;;;;;;;3.75;3.45;;;;;;;23.01;100.00;99679.84;4804730;29;20186;-78
2022/05/13 09:46:24;;;;;;;3.60;3.40;;;;;;;23.42;100.00;99675.28;4821075;29;20664;-79
2022/05/13 09:49:05;;;;;;;3.67;2.88;;;;;;;23.93;100.00;99671.53;4821031;29;20221;-78
2022/05/13 09:51:38;;;;;;;3.80;3.10;;;;;;;24.34;100.00;99677.75;4820556;29;20222;-78
2022/05/13 09:54:12;;;;;;;3.30;3.00;;;;;;;24.94;100.00;99683.69;4821254;29;20185;-79
2022/05/13 09:56:43;;;;;;;3.78;3.35;;;;;;;25.52;100.00;99679.97;4820754;29;20190;-79
2022/05/13 09:59:21;;;;;;;4.07;3.35;;;;;;;25.85;100.00;99672.97;4819689;29;20280;-78
2022/05/13 10:01:48;;;;;;;4.25;3.60;;;;;;;25.99;100.00;99670.09;4838267;29;20220;-79
2022/05/13 10:04:24;;;;;;;4.15;3.65;;;;;;;26.01;100.00;99669.78;4822470;29;20226;-78
2022/05/13 10:07:07;;;;;;;4.75;4.35;;;;;;;26.02;100.00;99665.91;4822804;29;20195;-79
2022/05/13 10:15:28;;;;;;;6.68;5.15;;;;;;;26.43;100.00;99665.50;4820205;29;20196;-79
2022/05/13 10:18:31;;;;;;;7.97;5.57;;;;;;;26.55;100.00;99660.19;4804386;29;20175;-79
2022/05/13 10:21:06;;;;;;;5.60;5.10;;;;;;;26.52;100.00;99658.06;4804351;29;20617;-80
2022/05/13 10:23:37;;;;;;;5.63;5.00;;;;;;;26.50;100.00;99652.88;4820178;29;20247;-78
2022/05/13 10:26:10;;;;;;;5.03;4.53;;;;;;;26.56;100.00;99648.03;4820467;29;20183;-78
2022/05/13 10:28:43;;;;;;;7.28;5.05;;;;;;;26.67;100.00;99650.13;4820244;29;20265;-79
2022/05/13 10:31:14;;;;;;;5.68;5.18;;;;;;;26.62;100.00;99646.75;4804083;29;20265;-79
2022/05/13 10:33:53;;;;;;;4.45;4.05;;;;;;;26.82;100.00;99645.25;4789328;29;20925;-78
2022/05/13 10:36:31;;;;;;;4.18;3.78;;;;;;;26.90;100.00;99645.25;4820233;29;20904;-78
2022/05/13 10:39:22;;;;;;;3.80;3.53;;;;;;;26.96;100.00;99634.91;4789441;29;20614;-78
2022/05/13 10:41:52;;;;;;;4.57;3.80;;;;;;;27.29;100.00;99626.88;4820525;29;20639;-79
2022/05/13 10:44:40;;;;;;;3.60;3.30;;;;;;;27.55;100.00;99625.63;4804014;29;20267;-79
2022/05/13 10:47:14;;;;;;;3.53;3.30;;;;;;;28.25;98.88;99623.25;4820203;29;20201;-78
2022/05/13 10:49:42;;;;;;;3.47;3.20;;;;;;;28.76;89.58;99620.03;4820265;29;20182;-79
2022/05/13 10:52:30;;;;;;;3.30;3.10;;;;;;;28.84;87.96;99619.13;4819090;29;20205;-78
2022/05/13 10:55:01;;;;;;;3.63;2.60;;;;;;;28.83;77.59;99614.78;4819314;29;20651;-79
2022/05/13 10:57:34;;;;;;;2.80;2.53;;;;;;;28.81;80.46;99607.97;4821755;29;20711;-79
2022/05/13 11:00:15;;;;;;;5.57;3.00;;;;;;;29.04;80.75;99616.66;4822062;29;20224;-79
2022/05/13 11:02:48;;;;;;;3.20;3.00;;;;;;;28.91;74.05;99609.50;4821385;29;20197;-79
2022/05/13 11:05:40;;;;;;;2.92;2.72;;;;;;;28.93;76.24;99607.22;4831523;29;20243;-79
2022/05/13 11:08:27;;;;;;;3.22;3.00;;;;;;;29.56;77.35;99601.06;4804009;29;20261;-79
2022/05/13 11:11:15;;;;;;;3.15;2.85;;;;;;;29.85;72.40;99596.44;4820197;29;20294;-79
2022/05/13 11:14:04;;;;;;;3.03;2.83;;;;;;;30.16;70.33;99594.66;4820004;29;20210;-79
2022/05/13 11:16:54;;;;;;;3.58;3.08;;;;;;;30.64;67.20;99594.81;4823409;29;20218;-78
2022/05/13 11:19:29;;;;;;;6.53;3.03;;;;;;;30.73;67.93;99590.75;4823012;29;20214;-79
2022/05/13 11:22:15;;;;;;;3.17;2.88;;;;;;;30.13;67.67;99578.78;4823142;29;20210;-79
2022/05/13 11:27:52;;;;;;;4.05;3.67;;;;;;;29.95;68.71;99565.59;4822778;29;20213;-79
2022/05/13 11:30:37;;;;;;;3.63;3.10;;;;;;;29.66;70.96;99564.72;4823008;29;20179;-79
2022/05/13 11:33:18;;;;;;;3.33;3.03;;;;;;;29.84;69.47;99542.34;4807118;29;20189;-79
2022/05/13 11:36:02;;;;;;;3.63;2.90;;;;;;;30.06;64.11;99545.41;4807133;29;20206;-79
2022/05/13 11:38:32;;;;;;;2.72;2.53;;;;;;;29.79;61.63;99540.63;4802510;29;20214;-79
2022/05/13 11:41:08;;;;;;;3.20;3.00;;;;;;;29.24;64.28;99536.56;4805131;29;20191;-79
2022/05/13 11:44:05;;;;;;;3.45;3.15;;;;;;;28.73;67.76;99534.47;4804822;29;20203;-79
2022/05/13 11:47:07;;;;;;;3.63;3.38;;;;;;;28.06;74.81;99529.25;4788890;29;20610;-79
2022/05/13 11:49:35;;;;;;;3.38;3.08;;;;;;;27.94;79.49;99525.31;4804401;29;20263;-79
2022/05/13 11:52:11;;;;;;;3.25;2.95;;;;;;;27.93;81.33;99523.69;4788664;29;20663;-79
2022/05/13 11:54:41;;;;;;;3.20;3.00;;;;;;;27.91;82.46;99523.22;4788637;29;20199;-78
2022/05/13 11:57:18;;;;;;;3.30;3.00;;;;;;;28.09;86.33;99512.84;4789004;29;20198;-79
2022/05/13 11:59:56;;;;;;;3.90;3.60;;;;;;;28.28;84.18;99510.41;4804467;29;20194;-78
2022/05/13 12:02:40;;;;;;;4.03;3.55;;;;;;;28.40;81.74;99510.47;4823704;29;20207;-79
2022/05/13 12:05:19;;;;;;;4.30;3.78;;;;;;;28.66;78.69;99512.13;4834784;29;20765;-79
2022/05/13 12:08:12;;;;;;;4.07;3.67;;;;;;;28.58;73.00;99499.25;4822496;29;20252;-79
2022/05/13 12:11:01;;;;;;;4.18;3.75;;;;;;;28.45;75.61;99493.72;4785714;29;20767;-79